This is the latest recevied weather packets stored in our database for station/object N0QV. If no packets are shown the sender has not sent any weather packets the latest 10 day(s).
| Time | Temp. | Humidity | Pressure | Rain* | Wind** | Luminosity | Snow |
|---|---|---|---|---|---|---|---|
| 1777737851 | 15° C | 32% | 1018.7 hPa | 0 mm | - | 748 W/m² | - |
| 1777737550 | 15° C | 38% | 1018.7 hPa | 0 mm | - | 605 W/m² | - |
| 1777737248 | 15° C | 35% | 1019 hPa | 0 mm | - | 745 W/m² | - |
| 1777736942 | 15° C | 36% | 1019.2 hPa | 0 mm | - | 754 W/m² | - |
| 1777736031 | 14.44° C | 34% | 1019.2 hPa | 0 mm | - | 722 W/m² | - |
| 1777735728 | 14.44° C | 37% | 1019.3 hPa | 0 mm | - | 696 W/m² | - |
| 1777735426 | 13.89° C | 35% | 1019.2 hPa | 0 mm | - | 736 W/m² | - |
| 1777735123 | 13.89° C | 36% | 1019.4 hPa | 0 mm | - | 687 W/m² | - |
| 1777734819 | 13.33° C | 35% | 1019.3 hPa | 0 mm | - | 664 W/m² | - |
| 1777734517 | 13.33° C | 35% | 1019.2 hPa | 0 mm | - | 605 W/m² | - |
| 1777734214 | 13.33° C | 36% | 1019.4 hPa | 0 mm | - | 592 W/m² | - |
| 1777733910 | 12.78° C | 38% | 1019.3 hPa | 0 mm | - | 560 W/m² | - |
| 1777733607 | 12.78° C | 38% | 1019.3 hPa | 0 mm | - | 562 W/m² | - |
| 1777733303 | 13.33° C | 39% | 1019.6 hPa | 0 mm | - | 512 W/m² | - |
| 1777733000 | 12.22° C | 39% | 1019.3 hPa | 0 mm | - | 553 W/m² | - |
| 1777732696 | 12.78° C | 43% | 1019.5 hPa | 0 mm | - | 509 W/m² | - |
| 1777732393 | 12.22° C | 42% | 1019.5 hPa | 0 mm | - | 466 W/m² | - |
| 1777732091 | 12.22° C | 47% | 1019.6 hPa | 0 mm | - | 482 W/m² | - |
| 1777731788 | 11.67° C | 45% | 1019.6 hPa | 0 mm | - | 408 W/m² | - |
| 1777731485 | 11.67° C | 46% | 1019.7 hPa | 0 mm | - | 354 W/m² | - |
| 1777731183 | 11.67° C | 49% | 1019.8 hPa | 0 mm | - | 335 W/m² | - |
| 1777730880 | 11.67° C | 47% | 1019.9 hPa | 0 mm | - | 410 W/m² | - |
| 1777730578 | 11.11° C | 48% | 1020 hPa | 0 mm | - | 377 W/m² | - |
| 1777730274 | 10.56° C | 49% | 1019.9 hPa | 0 mm | - | 348 W/m² | - |
| 1777729970 | 10.56° C | 52% | 1020 hPa | 0 mm | - | 332 W/m² | - |
* Rain latest hour (hover to see other rain measurements)
** Current wind speed in m/s (hover to see current wind gust speed)